createdAt,value
2018-04-21T00:00:05.397Z,47
2018-04-21T00:15:04.591Z,46
2018-04-21T00:30:05.005Z,47
2018-04-21T00:45:04.830Z,45
2018-04-21T01:00:04.589Z,45
2018-04-21T01:15:04.677Z,46
2018-04-21T01:30:04.762Z,45
2018-04-21T01:45:05.461Z,45
2018-04-21T02:00:05.035Z,45
2018-04-21T02:15:04.723Z,45
2018-04-21T02:30:04.516Z,44
2018-04-21T02:45:05.292Z,43
2018-04-21T03:00:04.846Z,45
2018-04-21T03:15:05.138Z,43
2018-04-21T03:30:05.218Z,44
2018-04-21T03:45:05.291Z,44
2018-04-21T04:00:04.739Z,44
2018-04-21T04:15:05.494Z,44
2018-04-21T04:30:04.636Z,44
2018-04-21T04:45:04.751Z,44
2018-04-21T05:00:05.299Z,44
2018-04-21T05:15:05.569Z,45
2018-04-21T05:30:05.368Z,44
2018-04-21T05:45:05.475Z,45
2018-04-21T06:00:04.498Z,48
2018-04-21T06:15:05.182Z,48
2018-04-21T06:30:04.943Z,49
2018-04-21T06:45:05.022Z,51
2018-04-21T07:00:04.822Z,53
2018-04-21T07:15:05.564Z,52
2018-04-21T07:30:05.639Z,54
2018-04-21T07:45:05.234Z,55
2018-04-21T08:00:05.246Z,56
2018-04-21T08:15:05.008Z,56
2018-04-21T08:30:05.246Z,58
2018-04-21T08:45:05.492Z,55
2018-04-21T09:00:05.305Z,57
2018-04-21T09:15:05.101Z,59
2018-04-21T09:30:04.864Z,59
2018-04-21T09:45:05.643Z,61
2018-04-21T10:00:05.721Z,63
2018-04-21T10:15:04.779Z,58
2018-04-21T10:30:05.076Z,60
2018-04-21T10:45:05.381Z,60
2018-04-21T11:00:05.234Z,60
2018-04-21T11:15:04.694Z,61
2018-04-21T11:30:04.488Z,58
2018-04-21T11:45:04.925Z,63
2018-04-21T12:00:04.421Z,60
2018-04-21T12:15:05.024Z,68
2018-04-21T12:30:04.824Z,57
2018-04-21T12:45:04.844Z,60
2018-04-21T13:00:04.885Z,64
2018-04-21T13:15:04.480Z,61
2018-04-21T13:30:04.772Z,63
2018-04-21T13:45:05.232Z,65
2018-04-21T14:00:05.239Z,62
2018-04-21T14:15:04.695Z,68
2018-04-21T14:30:04.387Z,67
2018-04-21T14:45:04.992Z,59
2018-04-21T15:00:06.149Z,68
2018-04-21T15:15:04.733Z,61
2018-04-21T15:30:04.477Z,70
2018-04-21T15:45:04.598Z,59
2018-04-21T16:00:04.675Z,64
2018-04-21T16:15:05.265Z,59
2018-04-21T16:30:05.034Z,58
2018-04-21T16:45:05.147Z,58
2018-04-21T17:00:04.879Z,58
2018-04-21T17:15:04.439Z,68
2018-04-21T17:30:05.267Z,58
2018-04-21T17:45:04.793Z,57
2018-04-21T18:00:04.740Z,57
2018-04-21T18:15:05.064Z,54
2018-04-21T18:30:05.281Z,52
2018-04-21T18:45:04.719Z,58
2018-04-21T19:00:05.312Z,57
2018-04-21T19:15:04.950Z,55
2018-04-21T19:30:04.638Z,57
2018-04-21T19:45:05.223Z,56
2018-04-21T20:00:04.667Z,52
2018-04-21T20:15:05.142Z,53
2018-04-21T20:30:04.914Z,52
2018-04-21T20:45:04.436Z,51
2018-04-21T21:00:04.925Z,55
2018-04-21T21:15:04.428Z,54
2018-04-21T21:30:05.111Z,51
2018-04-21T21:45:05.080Z,51
2018-04-21T22:00:04.599Z,54
2018-04-21T22:15:05.033Z,52
2018-04-21T22:30:05.228Z,50
2018-04-21T22:45:05.208Z,50
2018-04-21T23:00:04.761Z,48
2018-04-21T23:15:05.175Z,51
2018-04-21T23:30:04.837Z,48
2018-04-21T23:45:05.286Z,48
